createdAt,value
2017-03-03T00:00:35.435Z,99.99
2017-03-03T00:01:46.124Z,99.69
2017-03-03T00:02:56.828Z,99.79
2017-03-03T00:04:07.521Z,99.51
2017-03-03T00:05:18.215Z,99.69
2017-03-03T00:06:28.911Z,99.88
2017-03-03T00:07:39.593Z,99.69
2017-03-03T00:08:49.907Z,99.88
2017-03-03T00:10:00.617Z,99.51
2017-03-03T00:11:10.936Z,99.51
2017-03-03T00:12:21.634Z,99.79
2017-03-03T00:13:31.947Z,99.84
2017-03-03T00:14:42.667Z,99.22
2017-03-03T00:15:53.362Z,99.46
2017-03-03T00:17:04.067Z,98.9
2017-03-03T00:18:14.765Z,99.27
2017-03-03T00:19:25.053Z,99.46
2017-03-03T00:20:35.750Z,98.9
2017-03-03T00:21:46.453Z,98.61
2017-03-03T00:22:57.171Z,98.33
2017-03-03T00:24:07.856Z,98.61
2017-03-03T00:25:18.166Z,98.52
2017-03-03T00:26:29.112Z,98.52
2017-03-03T00:27:39.814Z,98.23
2017-03-03T00:28:50.504Z,97.76
2017-03-03T00:30:01.202Z,97.48
2017-03-03T00:31:11.098Z,98.04
2017-03-03T00:32:21.801Z,97.76
2017-03-03T00:33:32.106Z,97.85
2017-03-03T00:34:42.812Z,97.85
2017-03-03T00:35:53.524Z,97.1
2017-03-03T00:37:04.219Z,96.63
2017-03-03T00:38:16.940Z,95.97
2017-03-03T00:39:27.630Z,96.63
2017-03-03T00:40:38.339Z,96.34
2017-03-03T00:41:49.032Z,96.44
2017-03-03T00:42:59.748Z,96.81
2017-03-03T00:44:09.669Z,96.81
2017-03-03T00:45:20.360Z,97.1
2017-03-03T00:46:29.867Z,96.34
2017-03-03T00:47:40.590Z,96.25
2017-03-03T00:48:50.901Z,96.53
2017-03-03T00:50:01.198Z,96.91
2017-03-03T00:51:11.922Z,97.1
2017-03-03T00:52:22.634Z,96.63
2017-03-03T00:53:33.338Z,97.1
2017-03-03T00:54:44.050Z,97
2017-03-03T00:55:54.346Z,96.53
2017-03-03T00:57:05.037Z,96.91
2017-03-03T00:58:15.741Z,96.81
2017-03-03T00:59:26.440Z,97
2017-03-03T01:00:37.155Z,97.29
2017-03-03T01:01:47.877Z,97.76
2017-03-03T01:02:58.593Z,98.04
2017-03-03T01:04:09.309Z,97.95
2017-03-03T01:05:20.015Z,97.95
2017-03-03T01:06:30.718Z,97.8
2017-03-03T01:07:41.437Z,98.18
2017-03-03T01:08:52.130Z,98.65
2017-03-03T01:10:02.830Z,98.09
2017-03-03T01:11:13.565Z,98.75
2017-03-03T01:12:24.276Z,98.18
2017-03-03T01:13:34.978Z,98.75
2017-03-03T01:14:45.689Z,98.84
2017-03-03T01:15:56.376Z,98.75
2017-03-03T01:17:07.095Z,99.41
2017-03-03T01:18:17.795Z,99.13
2017-03-03T01:19:28.146Z,99.03
2017-03-03T01:20:38.852Z,99.13
2017-03-03T01:21:49.549Z,99.03
2017-03-03T01:22:59.868Z,98.75
2017-03-03T01:24:10.586Z,99.6
2017-03-03T01:25:21.282Z,99.51
2017-03-03T01:26:32.006Z,99.79
2017-03-03T01:27:42.331Z,98.65
2017-03-03T01:28:53.046Z,99.41
2017-03-03T01:30:03.343Z,98.94
2017-03-03T01:31:14.056Z,99.55
2017-03-03T01:32:24.415Z,99.18
2017-03-03T01:33:35.149Z,99.27
2017-03-03T01:34:45.837Z,98.8
2017-03-03T01:35:56.160Z,99.27
2017-03-03T01:37:06.871Z,98.99
2017-03-03T01:38:17.561Z,99.27
2017-03-03T01:39:28.273Z,99.37
2017-03-03T01:40:38.977Z,99.37
2017-03-03T01:41:49.670Z,99.08
2017-03-03T01:43:02.382Z,98.71
2017-03-03T01:44:13.092Z,98.8
2017-03-03T01:45:23.793Z,98.52
2017-03-03T01:46:34.495Z,98.52
2017-03-03T01:47:45.188Z,98.42
2017-03-03T01:48:55.503Z,98.23
2017-03-03T01:50:06.210Z,98.42
2017-03-03T01:51:16.916Z,98.33
2017-03-03T01:52:27.646Z,98.61
2017-03-03T01:53:38.348Z,98.71
2017-03-03T01:54:49.037Z,98.23
2017-03-03T01:55:59.357Z,97.85
2017-03-03T01:57:10.065Z,97.85
2017-03-03T01:58:20.763Z,98.14
2017-03-03T01:59:31.471Z,97.76
2017-03-03T02:00:42.183Z,97.76
2017-03-03T02:01:52.905Z,97.76
2017-03-03T02:03:03.221Z,98.04
2017-03-03T02:04:13.908Z,97.48
2017-03-03T02:05:24.652Z,97.19
2017-03-03T02:06:34.948Z,97.48
2017-03-03T02:07:45.671Z,97.57
2017-03-03T02:08:56.370Z,97.1
2017-03-03T02:10:07.075Z,97.29
2017-03-03T02:11:17.772Z,97.29
2017-03-03T02:12:28.080Z,97.57
2017-03-03T02:13:38.418Z,97.19
2017-03-03T02:14:49.112Z,97
2017-03-03T02:15:59.810Z,97.48
2017-03-03T02:17:10.519Z,97.19
2017-03-03T02:18:21.217Z,97.38
2017-03-03T02:19:31.906Z,98.14
2017-03-03T02:20:42.609Z,97.67
2017-03-03T02:21:53.310Z,97.48
2017-03-03T02:23:04.019Z,97.19
2017-03-03T02:24:14.713Z,97.19
2017-03-03T02:25:25.424Z,97
2017-03-03T02:26:36.118Z,97.1
2017-03-03T02:27:46.838Z,97.48
2017-03-03T02:28:57.544Z,96.96
2017-03-03T02:30:07.880Z,97.34
2017-03-03T02:31:18.589Z,97.29
2017-03-03T02:32:29.322Z,96.96
2017-03-03T02:33:39.620Z,97
2017-03-03T02:34:50.331Z,96.53
2017-03-03T02:36:01.041Z,96.58
2017-03-03T02:37:11.769Z,96.06
2017-03-03T02:38:22.471Z,95.59
2017-03-03T02:39:33.202Z,95.5
2017-03-03T02:40:43.921Z,94.74
2017-03-03T02:41:54.605Z,94.93
2017-03-03T02:43:04.930Z,94.93
2017-03-03T02:44:15.626Z,95.03
2017-03-03T02:45:25.915Z,96.15
2017-03-03T02:46:36.233Z,96.15
2017-03-03T02:47:46.934Z,95.4
2017-03-03T02:48:57.634Z,95.59
2017-03-03T02:50:07.978Z,95.12
2017-03-03T02:51:18.666Z,95.12
2017-03-03T02:52:29.362Z,94.93
2017-03-03T02:53:40.049Z,94.93
2017-03-03T02:54:50.344Z,95.31
2017-03-03T02:56:00.637Z,95.31
2017-03-03T02:57:11.330Z,94.84
2017-03-03T02:58:22.018Z,95.03
2017-03-03T02:59:31.928Z,94.84
2017-03-03T03:00:42.633Z,95.03
2017-03-03T03:01:53.332Z,95.26
2017-03-03T03:03:04.031Z,95.07
2017-03-03T03:04:14.742Z,94.98
2017-03-03T03:05:25.049Z,95.64
2017-03-03T03:06:35.354Z,94.98
2017-03-03T03:07:46.040Z,95.17
2017-03-03T03:08:56.754Z,95.64
2017-03-03T03:10:07.471Z,95.36
2017-03-03T03:11:18.184Z,96.11
2017-03-03T03:12:28.878Z,96.67
2017-03-03T03:13:39.608Z,96.48
2017-03-03T03:14:49.923Z,96.2
2017-03-03T03:16:00.607Z,96.3
2017-03-03T03:17:11.310Z,96.58
2017-03-03T03:18:22.024Z,96.3
2017-03-03T03:19:32.332Z,96.39
2017-03-03T03:20:43.034Z,96.11
2017-03-03T03:21:53.336Z,96.11
2017-03-03T03:23:04.073Z,95.36
2017-03-03T03:24:14.786Z,95.64
2017-03-03T03:25:25.482Z,94.98
2017-03-03T03:26:36.187Z,95.07
2017-03-03T03:27:46.882Z,94.6
2017-03-03T03:28:57.227Z,94.41
2017-03-03T03:30:07.925Z,94.79
2017-03-03T03:31:18.618Z,94.98
2017-03-03T03:32:28.917Z,94.32
2017-03-03T03:33:39.608Z,94.22
2017-03-03T03:34:50.308Z,94.32
2017-03-03T03:36:01.024Z,94.13
2017-03-03T03:37:11.727Z,94.03
2017-03-03T03:38:22.430Z,94.22
2017-03-03T03:39:32.742Z,93.65
2017-03-03T03:40:43.464Z,93.65
2017-03-03T03:41:54.173Z,93.65
2017-03-03T03:43:04.869Z,93.75
2017-03-03T03:44:15.555Z,93.75
2017-03-03T03:45:26.262Z,93.18
2017-03-03T03:46:36.570Z,93.28
2017-03-03T03:47:47.275Z,93.65
2017-03-03T03:48:58.007Z,93.28
2017-03-03T03:50:08.313Z,93.37
2017-03-03T03:51:19.035Z,93.18
2017-03-03T03:52:29.739Z,92.99
2017-03-03T03:53:40.056Z,93.28
2017-03-03T03:54:50.755Z,92.71
2017-03-03T03:56:01.440Z,92.61
2017-03-03T03:57:12.136Z,92.8
2017-03-03T03:58:22.440Z,92.33
2017-03-03T03:59:32.358Z,92.33
2017-03-03T04:00:43.048Z,92.71
2017-03-03T04:01:53.760Z,92.71
2017-03-03T04:03:04.068Z,92.71
2017-03-03T04:04:14.764Z,92.9
2017-03-03T04:05:25.451Z,92.8
2017-03-03T04:06:36.161Z,92.43
2017-03-03T04:07:46.889Z,92.71
2017-03-03T04:08:57.178Z,93.18
2017-03-03T04:10:07.508Z,93.18
2017-03-03T04:11:18.203Z,92.8
2017-03-03T04:12:28.891Z,93.28
2017-03-03T04:13:39.579Z,93.37
2017-03-03T04:14:50.311Z,93.37
2017-03-03T04:16:01.022Z,93.28
2017-03-03T04:17:11.739Z,93.28
2017-03-03T04:18:22.446Z,93.28
2017-03-03T04:19:32.739Z,93.47
2017-03-03T04:20:43.429Z,93.09
2017-03-03T04:21:54.149Z,93.09
2017-03-03T04:23:04.493Z,93.47
2017-03-03T04:24:15.190Z,93.28
2017-03-03T04:25:25.871Z,93.56
2017-03-03T04:26:36.173Z,93.47
2017-03-03T04:27:46.867Z,93.65
2017-03-03T04:28:57.578Z,93.47
2017-03-03T04:30:07.895Z,93.47
2017-03-03T04:31:18.595Z,93.18
2017-03-03T04:32:29.289Z,93.09
2017-03-03T04:33:39.982Z,92.71
2017-03-03T04:34:50.688Z,92.9
2017-03-03T04:36:01.380Z,92.61
2017-03-03T04:37:12.079Z,92.61
2017-03-03T04:38:22.783Z,92.61
2017-03-03T04:39:33.464Z,92.57
2017-03-03T04:40:44.186Z,92.66
2017-03-03T04:41:54.884Z,92.85
2017-03-03T04:43:05.189Z,92.76
2017-03-03T04:44:15.876Z,92.38
2017-03-03T04:45:26.571Z,92.57
2017-03-03T04:46:36.870Z,92.66
2017-03-03T04:47:47.576Z,92.76
2017-03-03T04:48:58.269Z,92.47
2017-03-03T04:50:08.992Z,93.42
2017-03-03T04:51:19.708Z,93.7
2017-03-03T04:52:30.428Z,93.51
2017-03-03T04:53:41.134Z,93.13
2017-03-03T04:54:51.841Z,93.13
2017-03-03T04:56:02.546Z,93.42
2017-03-03T04:57:13.256Z,93.23
2017-03-03T04:58:23.969Z,93.23
2017-03-03T04:59:34.691Z,93.61
2017-03-03T05:00:45.377Z,93.42
2017-03-03T05:01:56.083Z,93.61
2017-03-03T05:03:06.400Z,93.51
2017-03-03T05:04:17.103Z,93.51
2017-03-03T05:05:27.801Z,94.36
2017-03-03T05:06:38.493Z,94.36
2017-03-03T05:07:48.800Z,93.8
2017-03-03T05:08:59.500Z,94.17
2017-03-03T05:10:10.194Z,94.46
2017-03-03T05:11:20.905Z,94.46
2017-03-03T05:12:31.613Z,94.74
2017-03-03T05:13:42.309Z,94.74
2017-03-03T05:14:53.034Z,94.74
2017-03-03T05:16:03.761Z,94.74
2017-03-03T05:17:14.112Z,94.55
2017-03-03T05:18:24.412Z,94.55
2017-03-03T05:19:35.111Z,94.93
2017-03-03T05:20:45.428Z,94.74
2017-03-03T05:21:55.725Z,95.02
2017-03-03T05:23:06.428Z,94.79
2017-03-03T05:24:16.718Z,94.17
2017-03-03T05:25:27.398Z,94.17
2017-03-03T05:26:37.703Z,93.42
2017-03-03T05:27:48.401Z,93.42
2017-03-03T05:28:59.089Z,93.51
2017-03-03T05:30:09.802Z,93.7
2017-03-03T05:31:20.502Z,93.61
2017-03-03T05:32:31.204Z,94.36
2017-03-03T05:33:41.902Z,94.27
2017-03-03T05:34:52.598Z,94.27
2017-03-03T05:36:02.919Z,94.36
2017-03-03T05:37:13.626Z,93.7
2017-03-03T05:38:24.335Z,93.61
2017-03-03T05:39:34.631Z,93.51
2017-03-03T05:40:45.335Z,93.89
2017-03-03T05:41:56.037Z,93.8
2017-03-03T05:43:06.347Z,93.61
2017-03-03T05:44:17.048Z,93.23
2017-03-03T05:45:27.738Z,93.23
2017-03-03T05:46:38.456Z,93.42
2017-03-03T05:47:48.762Z,93.51
2017-03-03T05:48:59.474Z,93.7
2017-03-03T05:50:09.781Z,94.41
2017-03-03T05:51:20.484Z,94.74
2017-03-03T05:52:31.180Z,94.69
2017-03-03T05:53:41.875Z,93.75
2017-03-03T05:54:52.605Z,92.99
2017-03-03T05:56:03.321Z,92.71
2017-03-03T05:57:13.623Z,93.18
2017-03-03T05:58:24.325Z,93.75
2017-03-03T05:59:35.021Z,92.8
2017-03-03T06:00:45.318Z,92.14
2017-03-03T06:01:56.020Z,91.11
2017-03-03T06:03:06.731Z,91.86
2017-03-03T06:04:17.423Z,91.86
2017-03-03T06:05:27.331Z,91.96
2017-03-03T06:06:38.051Z,91.86
2017-03-03T06:07:48.781Z,91.39
2017-03-03T06:08:59.503Z,91.67
2017-03-03T06:10:10.196Z,91.63
2017-03-03T06:11:20.901Z,91.86
2017-03-03T06:12:31.606Z,91.63
2017-03-03T06:13:42.325Z,92
2017-03-03T06:14:53.047Z,91.91
2017-03-03T06:16:03.743Z,92.1
2017-03-03T06:17:14.468Z,92.29
2017-03-03T06:18:24.785Z,92.1
2017-03-03T06:19:35.496Z,92.29
2017-03-03T06:20:45.800Z,92.95
2017-03-03T06:21:56.487Z,92.38
2017-03-03T06:23:07.208Z,92.76
2017-03-03T06:24:17.925Z,93.04
2017-03-03T06:25:28.626Z,93.32
2017-03-03T06:26:39.355Z,93.23
2017-03-03T06:27:50.043Z,93.32
2017-03-03T06:29:00.750Z,93.61
2017-03-03T06:30:11.460Z,93.04
2017-03-03T06:31:22.295Z,93.23
2017-03-03T06:32:33.012Z,93.42
2017-03-03T06:33:43.705Z,93.61
2017-03-03T06:34:53.995Z,93.7
2017-03-03T06:36:04.703Z,94.46
2017-03-03T06:37:15.034Z,94.17
2017-03-03T06:38:25.745Z,94.08
2017-03-03T06:39:36.461Z,94.27
2017-03-03T06:40:47.164Z,94.83
2017-03-03T06:41:57.869Z,94.46
2017-03-03T06:43:08.567Z,94.46
2017-03-03T06:44:19.267Z,94.46
2017-03-03T06:45:29.962Z,94.55
2017-03-03T06:46:40.675Z,94.83
2017-03-03T06:47:51.369Z,94.46
2017-03-03T06:49:02.074Z,95.12
2017-03-03T06:50:12.783Z,95.02
2017-03-03T06:51:23.135Z,94.83
2017-03-03T06:52:33.822Z,94.83
2017-03-03T06:53:44.512Z,94.55
2017-03-03T06:54:55.206Z,94.93
2017-03-03T06:56:05.927Z,95.02
2017-03-03T06:57:15.842Z,94.65
2017-03-03T06:58:26.140Z,95.02
2017-03-03T06:59:36.079Z,94.55
2017-03-03T07:00:46.772Z,94.74
2017-03-03T07:01:57.461Z,94.65
2017-03-03T07:03:08.162Z,94.08
2017-03-03T07:04:18.468Z,94.55
2017-03-03T07:05:29.181Z,94.65
2017-03-03T07:06:39.882Z,94.46
2017-03-03T07:07:50.585Z,94.36
2017-03-03T07:09:01.270Z,94.27
2017-03-03T07:10:11.973Z,94.36
2017-03-03T07:11:22.663Z,93.89
2017-03-03T07:12:33.375Z,94.17
2017-03-03T07:13:44.078Z,93.98
2017-03-03T07:14:54.852Z,94.17
2017-03-03T07:16:05.608Z,94.46
2017-03-03T07:17:15.916Z,93.89
2017-03-03T07:18:26.232Z,93.47
2017-03-03T07:19:36.956Z,93.37
2017-03-03T07:20:47.667Z,93.09
2017-03-03T07:21:58.388Z,92.61
2017-03-03T07:23:09.077Z,92.43
2017-03-03T07:24:19.401Z,93.09
2017-03-03T07:25:29.715Z,93.56
2017-03-03T07:26:40.009Z,92.99
2017-03-03T07:27:50.712Z,92.61
2017-03-03T07:29:01.419Z,92.9
2017-03-03T07:30:12.117Z,93.65
2017-03-03T07:31:22.815Z,93.37
2017-03-03T07:32:33.513Z,93.09
2017-03-03T07:33:43.822Z,92.99
2017-03-03T07:34:54.522Z,93.37
2017-03-03T07:36:04.864Z,93.47
2017-03-03T07:37:15.597Z,93.65
2017-03-03T07:38:26.304Z,93.47
2017-03-03T07:39:36.603Z,92.14
2017-03-03T07:40:47.323Z,91.58
2017-03-03T07:41:58.023Z,91.96
2017-03-03T07:43:08.717Z,91.11
2017-03-03T07:44:19.406Z,91.3
2017-03-03T07:45:30.111Z,91.58
2017-03-03T07:46:40.817Z,92.05
2017-03-03T07:47:51.120Z,92.24
2017-03-03T07:49:01.820Z,92.52
2017-03-03T07:50:12.119Z,92.43
2017-03-03T07:51:22.825Z,92.71
2017-03-03T07:52:33.517Z,93.18
2017-03-03T07:53:44.230Z,93.37
2017-03-03T07:54:54.932Z,93.56
2017-03-03T07:56:05.258Z,93.65
2017-03-03T07:57:15.945Z,94.41
2017-03-03T07:58:26.672Z,93.94
2017-03-03T07:59:37.380Z,94.51
2017-03-03T08:00:48.102Z,94.22
2017-03-03T08:01:58.819Z,94.22
2017-03-03T08:03:08.725Z,92.33
2017-03-03T08:04:19.431Z,92.24
2017-03-03T08:05:30.132Z,91.96
2017-03-03T08:06:40.435Z,92.05
2017-03-03T08:07:51.119Z,92.24
2017-03-03T08:09:01.834Z,92.9
2017-03-03T08:10:12.550Z,92.99
2017-03-03T08:11:22.862Z,93.28
2017-03-03T08:12:33.573Z,92.61
2017-03-03T08:13:44.286Z,92.71
2017-03-03T08:14:54.969Z,93.47
2017-03-03T08:16:05.665Z,93.47
2017-03-03T08:17:15.988Z,94.32
2017-03-03T08:18:26.336Z,94.03
2017-03-03T08:19:36.648Z,94.41
2017-03-03T08:20:47.369Z,94.36
2017-03-03T08:21:58.083Z,95.02
2017-03-03T08:23:09.140Z,94.74
2017-03-03T08:24:19.852Z,95.59
2017-03-03T08:25:30.154Z,95.31
2017-03-03T08:26:40.860Z,95.4
2017-03-03T08:27:51.567Z,94.83
2017-03-03T08:29:02.267Z,94.93
2017-03-03T08:30:12.958Z,94.83
2017-03-03T08:31:23.663Z,94.93
2017-03-03T08:32:34.365Z,95.12
2017-03-03T08:33:45.100Z,94.74
2017-03-03T08:34:55.792Z,94.65
2017-03-03T08:36:06.503Z,95.07
2017-03-03T08:37:17.216Z,94.88
2017-03-03T08:38:27.906Z,94.98
2017-03-03T08:39:38.614Z,94.79
2017-03-03T08:40:49.342Z,94.32
2017-03-03T08:42:00.056Z,94.03
2017-03-03T08:43:10.788Z,94.41
2017-03-03T08:44:21.101Z,94.22
2017-03-03T08:45:31.786Z,94.32
2017-03-03T08:46:42.537Z,95.07
2017-03-03T08:47:53.321Z,94.6
2017-03-03T08:49:04.049Z,94.13
2017-03-03T08:50:15.147Z,94.32
2017-03-03T08:51:26.668Z,93.84
2017-03-03T08:52:37.398Z,93.28
2017-03-03T08:53:48.097Z,93.28
2017-03-03T08:54:58.817Z,92.71
2017-03-03T08:56:09.134Z,92.61
2017-03-03T08:57:19.064Z,92.61
2017-03-03T08:58:29.792Z,91.96
2017-03-03T08:59:40.110Z,91.67
2017-03-03T09:00:50.821Z,91.49
2017-03-03T09:02:01.518Z,90.17
2017-03-03T09:03:12.256Z,89.98
2017-03-03T09:04:22.953Z,88.56
2017-03-03T09:05:33.660Z,87.62
2017-03-03T09:06:44.371Z,87.43
2017-03-03T09:07:54.708Z,86.4
2017-03-03T09:09:05.425Z,85.17
2017-03-03T09:10:16.137Z,84.98
2017-03-03T09:11:26.434Z,84.79
2017-03-03T09:12:37.128Z,85.64
2017-03-03T09:13:47.824Z,87.05
2017-03-03T09:14:58.543Z,87.24
2017-03-03T09:16:08.847Z,86.58
2017-03-03T09:17:19.555Z,85.54
2017-03-03T09:18:30.251Z,85.07
2017-03-03T09:19:40.962Z,84.45
2017-03-03T09:20:51.677Z,84.13
2017-03-03T09:22:02.368Z,84.13
2017-03-03T09:23:13.056Z,84.6
2017-03-03T09:24:23.356Z,84.88
2017-03-03T09:25:34.075Z,84.41
2017-03-03T09:26:44.370Z,84.22
2017-03-03T09:27:54.672Z,83.75
2017-03-03T09:29:05.414Z,83.33
2017-03-03T09:30:16.113Z,82
2017-03-03T09:31:26.818Z,81.62
2017-03-03T09:32:37.509Z,80.87
2017-03-03T09:33:48.209Z,80.26
2017-03-03T09:34:58.908Z,81.24
2017-03-03T09:36:09.243Z,80.54
2017-03-03T09:37:19.934Z,80.83
2017-03-03T09:38:30.637Z,80.17
2017-03-03T09:39:41.001Z,79.98
2017-03-03T09:40:51.695Z,79.98
2017-03-03T09:42:02.002Z,80.17
2017-03-03T09:43:12.306Z,79.6
2017-03-03T09:44:23.036Z,79.69
2017-03-03T09:45:33.336Z,80.07
2017-03-03T09:46:44.038Z,80.17
2017-03-03T09:47:54.749Z,80.07
2017-03-03T09:49:05.473Z,80.26
2017-03-03T09:50:16.170Z,80.54
2017-03-03T09:51:26.888Z,80.92
2017-03-03T09:52:36.817Z,80.92
2017-03-03T09:53:47.137Z,80.92
2017-03-03T09:54:57.826Z,80.73
2017-03-03T09:56:08.124Z,80.45
2017-03-03T09:57:18.047Z,80.17
2017-03-03T09:58:28.752Z,80.17
2017-03-03T09:59:39.455Z,79.6
2017-03-03T10:00:50.162Z,80.02
2017-03-03T10:02:00.866Z,79.83
2017-03-03T10:03:11.167Z,79.83
2017-03-03T10:04:21.897Z,79.64
2017-03-03T10:05:32.599Z,79.27
2017-03-03T10:06:43.310Z,78.7
2017-03-03T10:07:54.004Z,78.89
2017-03-03T10:09:04.741Z,78.79
2017-03-03T10:10:15.051Z,79.46
2017-03-03T10:11:25.766Z,79.74
2017-03-03T10:12:36.092Z,79.93
2017-03-03T10:13:46.817Z,79.55
2017-03-03T10:14:57.516Z,79.46
2017-03-03T10:16:07.820Z,79.93
2017-03-03T10:17:18.507Z,80.02
2017-03-03T10:18:28.826Z,80.11
2017-03-03T10:19:39.143Z,80.02
2017-03-03T10:20:49.858Z,81.24
2017-03-03T10:22:00.182Z,82
2017-03-03T10:23:10.870Z,82.95
2017-03-03T10:24:21.185Z,84.36
2017-03-03T10:25:31.897Z,85.21
2017-03-03T10:26:41.836Z,84.83
2017-03-03T10:27:52.138Z,84.64
2017-03-03T10:29:02.833Z,83.61
2017-03-03T10:30:13.549Z,83.55
2017-03-03T10:31:24.261Z,83.55
2017-03-03T10:32:34.174Z,84.74
2017-03-03T10:33:44.872Z,85.59
2017-03-03T10:34:55.573Z,85.59
2017-03-03T10:36:05.871Z,85.3
2017-03-03T10:37:16.579Z,85.3
2017-03-03T10:38:26.868Z,85.49
2017-03-03T10:39:37.167Z,84.64
2017-03-03T10:40:47.867Z,84.45
2017-03-03T10:41:58.596Z,83.61
2017-03-03T10:43:09.300Z,83.7
2017-03-03T10:44:19.602Z,84.27
2017-03-03T10:45:29.922Z,85.3
2017-03-03T10:46:40.230Z,85.4
2017-03-03T10:47:50.934Z,84.64
2017-03-03T10:49:01.673Z,84.17
2017-03-03T10:50:12.397Z,84.55
2017-03-03T10:51:22.318Z,84.74
2017-03-03T10:52:32.220Z,85.49
2017-03-03T10:53:42.908Z,85.68
2017-03-03T10:54:53.633Z,85.4
2017-03-03T10:56:04.345Z,86.15
2017-03-03T10:57:15.058Z,86.25
2017-03-03T10:58:25.755Z,86.34
2017-03-03T10:59:36.066Z,86.82
2017-03-03T11:00:46.770Z,86.82
2017-03-03T11:01:56.706Z,87.19
2017-03-03T11:03:07.417Z,87.38
2017-03-03T11:04:18.126Z,87.19
2017-03-03T11:05:28.430Z,86.91
2017-03-03T11:06:39.121Z,87.1
2017-03-03T11:07:49.828Z,87.29
2017-03-03T11:09:00.521Z,86.86
2017-03-03T11:10:11.239Z,86.48
2017-03-03T11:11:21.569Z,86.19
2017-03-03T11:12:32.268Z,85.3
2017-03-03T11:13:42.984Z,82.46
2017-03-03T11:14:52.882Z,81.56
2017-03-03T11:16:03.600Z,80.9
2017-03-03T11:17:13.947Z,79.61
2017-03-03T11:18:24.642Z,79.43
2017-03-03T11:19:35.350Z,78.29
2017-03-03T11:20:46.070Z,77.1
2017-03-03T11:21:56.769Z,75.87
2017-03-03T11:23:07.479Z,75.02
2017-03-03T11:24:18.198Z,75.4
2017-03-03T11:25:28.902Z,74.68
2017-03-03T11:26:39.601Z,73.92
2017-03-03T11:27:49.900Z,72.69
2017-03-03T11:29:00.633Z,72.12
2017-03-03T11:30:11.355Z,72.03
2017-03-03T11:31:22.053Z,70.7
2017-03-03T11:32:32.773Z,70.14
2017-03-03T11:33:43.481Z,71.27
2017-03-03T11:34:54.202Z,72.22
2017-03-03T11:36:04.537Z,70.26
2017-03-03T11:37:15.298Z,69.6
2017-03-03T11:38:25.611Z,69.32
2017-03-03T11:39:36.336Z,69.32
2017-03-03T11:40:47.059Z,69.13
2017-03-03T11:41:57.783Z,69.79
2017-03-03T11:43:08.583Z,69.7
2017-03-03T11:44:19.281Z,69.22
2017-03-03T11:45:30.000Z,69.73
2017-03-03T11:46:40.301Z,69.54
2017-03-03T11:47:51.011Z,69.57
2017-03-03T11:49:01.739Z,67.81
2017-03-03T11:50:12.073Z,65.85
2017-03-03T11:51:22.380Z,65.75
2017-03-03T11:52:33.086Z,65.37
2017-03-03T11:53:43.832Z,65.31
2017-03-03T11:54:54.555Z,64.21
2017-03-03T11:56:05.283Z,62.5
2017-03-03T11:57:16.005Z,61.55
2017-03-03T11:58:26.327Z,62.02
2017-03-03T11:59:37.050Z,61.39
2017-03-03T12:00:47.792Z,61.58
2017-03-03T12:01:58.499Z,61.42
2017-03-03T12:03:09.213Z,60.6
2017-03-03T12:04:19.934Z,60.02
2017-03-03T12:05:30.652Z,57.65
2017-03-03T12:06:41.379Z,55.83
2017-03-03T12:07:52.096Z,54.6
2017-03-03T12:09:02.828Z,57.43
2017-03-03T12:10:13.577Z,55.46
2017-03-03T12:11:24.300Z,55.65
2017-03-03T12:12:34.678Z,53.36
2017-03-03T12:13:44.987Z,53.81
2017-03-03T12:14:55.321Z,53.91
2017-03-03T12:16:06.072Z,55.71
2017-03-03T12:17:16.815Z,57.45
2017-03-03T12:18:27.544Z,57.01
2017-03-03T12:19:38.282Z,56.37
2017-03-03T12:20:49.006Z,54.3
2017-03-03T12:21:59.324Z,54.21
2017-03-03T12:23:09.641Z,52.71
2017-03-03T12:24:20.386Z,53.66
2017-03-03T12:25:31.101Z,52.55
2017-03-03T12:26:41.817Z,51.5
2017-03-03T12:27:52.554Z,49.97
2017-03-03T12:29:03.267Z,50.57
2017-03-03T12:30:13.994Z,49.9
2017-03-03T12:31:24.723Z,49.33
2017-03-03T12:32:35.450Z,49.64
2017-03-03T12:33:46.177Z,50.02
2017-03-03T12:34:56.895Z,49.16
2017-03-03T12:36:06.820Z,49.28
2017-03-03T12:37:17.140Z,48.99
2017-03-03T12:38:27.856Z,48.73
2017-03-03T12:39:38.576Z,47.87
2017-03-03T12:40:49.309Z,47.2
2017-03-03T12:42:02.147Z,46.66
2017-03-03T12:43:12.472Z,46.08
2017-03-03T12:44:23.182Z,45.31
2017-03-03T12:45:33.961Z,44.19
2017-03-03T12:46:44.680Z,43.98
2017-03-03T12:47:55.396Z,43.98
2017-03-03T12:49:06.115Z,43.88
2017-03-03T12:50:16.034Z,44.57
2017-03-03T12:51:26.361Z,45.15
2017-03-03T12:52:37.090Z,44.09
2017-03-03T12:53:47.824Z,43.44
2017-03-03T12:54:58.531Z,42.97
2017-03-03T12:56:08.845Z,42.87
2017-03-03T12:57:19.586Z,42.2
2017-03-03T12:58:29.119Z,40.29
2017-03-03T12:59:39.874Z,42.01
2017-03-03T13:00:50.199Z,40.58
2017-03-03T13:02:00.535Z,39.23
2017-03-03T13:03:11.252Z,38.56
2017-03-03T13:04:21.581Z,39.89
2017-03-03T13:05:31.895Z,40.65
2017-03-03T13:06:42.609Z,41.13
2017-03-03T13:07:53.342Z,40.46
2017-03-03T13:09:03.292Z,40.38
2017-03-03T13:10:13.210Z,41.15
2017-03-03T13:11:23.932Z,40.58
2017-03-03T13:12:34.643Z,40.19
2017-03-03T13:13:45.380Z,40.26
2017-03-03T13:14:55.723Z,40.26
2017-03-03T13:16:06.433Z,40.34
2017-03-03T13:17:16.786Z,40.44
2017-03-03T13:18:27.107Z,40.7
2017-03-03T13:19:37.831Z,40.97
2017-03-03T13:20:48.570Z,41.64
2017-03-03T13:21:58.911Z,41.62
2017-03-03T13:23:09.667Z,41.91
2017-03-03T13:24:19.987Z,42.27
2017-03-03T13:25:30.708Z,42.34
2017-03-03T13:26:41.435Z,42.89
2017-03-03T13:27:52.190Z,43.06
2017-03-03T13:29:02.903Z,43.32
2017-03-03T13:30:13.243Z,44.26
2017-03-03T13:31:23.954Z,45.01
2017-03-03T13:32:34.654Z,45.37
2017-03-03T13:33:45.377Z,46.01
2017-03-03T13:34:56.133Z,45.92
2017-03-03T13:36:06.834Z,46.85
2017-03-03T13:37:17.571Z,47.42
2017-03-03T13:38:28.284Z,48.25
2017-03-03T13:39:38.989Z,48.54
2017-03-03T13:40:49.707Z,49.37
2017-03-03T13:42:00.429Z,49.27
2017-03-03T13:43:11.156Z,49.65
2017-03-03T13:44:21.543Z,49.84
2017-03-03T13:45:31.861Z,49.77
2017-03-03T13:46:42.585Z,50.05
2017-03-03T13:47:52.513Z,50.24
2017-03-03T13:49:02.836Z,49.87
2017-03-03T13:50:13.566Z,49.68
2017-03-03T13:51:23.078Z,49.22
2017-03-03T13:52:33.797Z,49.7
2017-03-03T13:53:44.114Z,49.13
2017-03-03T13:54:54.815Z,49.1
2017-03-03T13:56:05.551Z,48.82
2017-03-03T13:57:16.275Z,49.29
2017-03-03T13:58:27.003Z,49.51
2017-03-03T13:59:37.722Z,49.25
2017-03-03T14:00:48.447Z,48.01
2017-03-03T14:01:58.775Z,47.73
2017-03-03T14:03:09.501Z,48.01
2017-03-03T14:04:19.834Z,48.18
2017-03-03T14:05:30.532Z,48.08
2017-03-03T14:06:41.275Z,48.66
2017-03-03T14:07:51.996Z,48.91
2017-03-03T14:09:02.716Z,49.29
2017-03-03T14:10:13.436Z,49.2
2017-03-03T14:11:24.160Z,49.39
2017-03-03T14:12:34.871Z,49.84
2017-03-03T14:13:45.612Z,49.65
2017-03-03T14:14:56.342Z,49.84
2017-03-03T14:16:07.054Z,49.2
2017-03-03T14:17:17.755Z,49.2
2017-03-03T14:18:28.456Z,49.22
2017-03-03T14:19:39.171Z,49.06
2017-03-03T14:20:49.895Z,48.39
2017-03-03T14:22:00.634Z,48.96
2017-03-03T14:23:11.345Z,48.96
2017-03-03T14:24:22.076Z,48.8
2017-03-03T14:25:32.381Z,48.61
2017-03-03T14:26:43.099Z,49.15
2017-03-03T14:27:53.813Z,49.25
2017-03-03T14:29:04.548Z,49.54
2017-03-03T14:30:14.904Z,49.35
2017-03-03T14:31:25.241Z,49.44
2017-03-03T14:32:35.587Z,49.54
2017-03-03T14:33:45.909Z,49.73
2017-03-03T14:34:56.623Z,49.79
2017-03-03T14:36:07.379Z,49.89
2017-03-03T14:37:18.086Z,50.62
2017-03-03T14:38:28.802Z,51.67
2017-03-03T14:39:39.113Z,51.48
2017-03-03T14:40:49.852Z,52.12
2017-03-03T14:42:00.564Z,52.5
2017-03-03T14:43:11.301Z,53.35
2017-03-03T14:44:22.010Z,53.33
2017-03-03T14:45:32.736Z,53.99
2017-03-03T14:46:43.473Z,54.75
2017-03-03T14:47:54.163Z,54.91
2017-03-03T14:49:04.882Z,55.1
2017-03-03T14:50:15.210Z,55.96
2017-03-03T14:51:25.918Z,55.57
2017-03-03T14:52:36.237Z,55.67
2017-03-03T14:53:46.961Z,55.76
2017-03-03T14:54:57.277Z,55.96
2017-03-03T14:56:07.979Z,55.89
2017-03-03T14:57:18.696Z,55.41
2017-03-03T14:58:29.410Z,55.19
2017-03-03T14:59:39.739Z,55.19
2017-03-03T15:00:50.449Z,55.96
2017-03-03T15:02:01.178Z,56.15
2017-03-03T15:03:11.895Z,56.15
2017-03-03T15:04:22.605Z,56.15
2017-03-03T15:05:33.330Z,56.99
2017-03-03T15:06:44.046Z,56.68
2017-03-03T15:07:54.347Z,56.81
2017-03-03T15:09:05.047Z,56.99
2017-03-03T15:10:15.351Z,56.4
2017-03-03T15:11:26.059Z,56.34
2017-03-03T15:12:36.791Z,56.34